sensor_id;sensor_type;location;lat;lon;timestamp;P1;durP1;ratioP1;P2;durP2;ratioP2
69954;SDS011;57279;55.912;37.490;2023-03-04T00:00:56;14.20;;;3.03;;
69954;SDS011;57279;55.912;37.490;2023-03-04T00:03:21;8.05;;;2.70;;
69954;SDS011;57279;55.912;37.490;2023-03-04T00:05:47;11.57;;;3.00;;
69954;SDS011;57279;55.912;37.490;2023-03-04T00:08:13;14.18;;;4.90;;
69954;SDS011;57279;55.912;37.490;2023-03-04T00:10:39;17.05;;;4.20;;
69954;SDS011;57279;55.912;37.490;2023-03-04T00:13:04;11.00;;;3.75;;
69954;SDS011;57279;55.912;37.490;2023-03-04T00:15:30;10.55;;;2.90;;
69954;SDS011;57279;55.912;37.490;2023-03-04T00:17:56;11.90;;;3.33;;
69954;SDS011;57279;55.912;37.490;2023-03-04T00:20:21;8.93;;;3.13;;
69954;SDS011;57279;55.912;37.490;2023-03-04T00:22:47;14.52;;;3.75;;
69954;SDS011;57279;55.912;37.490;2023-03-04T00:25:13;10.18;;;2.80;;
69954;SDS011;57279;55.912;37.490;2023-03-04T00:27:38;11.95;;;4.25;;
69954;SDS011;57279;55.912;37.490;2023-03-04T00:30:05;11.32;;;3.00;;
69954;SDS011;57279;55.912;37.490;2023-03-04T00:32:34;11.13;;;3.10;;
69954;SDS011;57279;55.912;37.490;2023-03-04T00:34:59;10.50;;;3.33;;
69954;SDS011;57279;55.912;37.490;2023-03-04T00:37:25;12.65;;;4.28;;
69954;SDS011;57279;55.912;37.490;2023-03-04T00:39:51;11.15;;;3.65;;
69954;SDS011;57279;55.912;37.490;2023-03-04T00:42:17;11.38;;;4.22;;
69954;SDS011;57279;55.912;37.490;2023-03-04T00:44:42;12.80;;;3.50;;
69954;SDS011;57279;55.912;37.490;2023-03-04T00:47:08;11.02;;;2.88;;
69954;SDS011;57279;55.912;37.490;2023-03-04T00:49:33;13.38;;;2.58;;
69954;SDS011;57279;55.912;37.490;2023-03-04T00:51:59;8.95;;;3.03;;
69954;SDS011;57279;55.912;37.490;2023-03-04T00:54:25;13.52;;;3.15;;
69954;SDS011;57279;55.912;37.490;2023-03-04T00:59:16;9.98;;;2.40;;
69954;SDS011;57279;55.912;37.490;2023-03-04T01:01:42;9.77;;;2.60;;
69954;SDS011;57279;55.912;37.490;2023-03-04T01:04:08;12.38;;;3.05;;
69954;SDS011;57279;55.912;37.490;2023-03-04T01:06:33;9.95;;;3.10;;
69954;SDS011;57279;55.912;37.490;2023-03-04T01:08:59;8.40;;;2.72;;
69954;SDS011;57279;55.912;37.490;2023-03-04T01:11:25;9.70;;;2.70;;
69954;SDS011;57279;55.912;37.490;2023-03-04T01:13:50;10.77;;;2.63;;
69954;SDS011;57279;55.912;37.490;2023-03-04T01:16:16;9.85;;;2.67;;
69954;SDS011;57279;55.912;37.490;2023-03-04T01:18:41;11.25;;;3.45;;
69954;SDS011;57279;55.912;37.490;2023-03-04T01:21:07;10.05;;;2.97;;
69954;SDS011;57279;55.912;37.490;2023-03-04T01:23:33;11.50;;;3.08;;
69954;SDS011;57279;55.912;37.490;2023-03-04T01:26:00;9.45;;;2.92;;
69954;SDS011;57279;55.912;37.490;2023-03-04T01:28:25;9.63;;;2.95;;
69954;SDS011;57279;55.912;37.490;2023-03-04T01:30:51;10.27;;;3.00;;
69954;SDS011;57279;55.912;37.490;2023-03-04T01:33:17;10.07;;;3.38;;
69954;SDS011;57279;55.912;37.490;2023-03-04T01:35:42;10.02;;;3.50;;
69954;SDS011;57279;55.912;37.490;2023-03-04T01:38:08;8.77;;;3.60;;
69954;SDS011;57279;55.912;37.490;2023-03-04T01:40:33;10.10;;;3.15;;
69954;SDS011;57279;55.912;37.490;2023-03-04T01:42:59;9.95;;;2.95;;
69954;SDS011;57279;55.912;37.490;2023-03-04T01:45:25;13.10;;;4.00;;
69954;SDS011;57279;55.912;37.490;2023-03-04T01:47:51;11.18;;;3.80;;
69954;SDS011;57279;55.912;37.490;2023-03-04T01:50:26;10.27;;;3.20;;
69954;SDS011;57279;55.912;37.490;2023-03-04T01:52:55;9.77;;;3.65;;
69954;SDS011;57279;55.912;37.490;2023-03-04T01:55:21;10.18;;;3.65;;
69954;SDS011;57279;55.912;37.490;2023-03-04T01:57:49;10.95;;;4.00;;
69954;SDS011;57279;55.912;37.490;2023-03-04T02:00:21;10.02;;;3.05;;
69954;SDS011;57279;55.912;37.490;2023-03-04T02:02:57;8.95;;;3.35;;
69954;SDS011;57279;55.912;37.490;2023-03-04T02:07:51;14.63;;;3.55;;
69954;SDS011;57279;55.912;37.490;2023-03-04T02:10:19;11.70;;;3.78;;
69954;SDS011;57279;55.912;37.490;2023-03-04T02:12:45;9.05;;;3.83;;
69954;SDS011;57279;55.912;37.490;2023-03-04T02:15:11;11.88;;;4.10;;
69954;SDS011;57279;55.912;37.490;2023-03-04T02:17:37;9.73;;;3.80;;
69954;SDS011;57279;55.912;37.490;2023-03-04T02:23:00;9.93;;;3.63;;
69954;SDS011;57279;55.912;37.490;2023-03-04T02:25:36;12.50;;;4.50;;
69954;SDS011;57279;55.912;37.490;2023-03-04T02:28:09;11.70;;;4.63;;
69954;SDS011;57279;55.912;37.490;2023-03-04T02:30:35;12.68;;;4.90;;
69954;SDS011;57279;55.912;37.490;2023-03-04T02:33:01;14.43;;;4.03;;
69954;SDS011;57279;55.912;37.490;2023-03-04T02:35:26;10.32;;;4.05;;
69954;SDS011;57279;55.912;37.490;2023-03-04T02:37:52;10.43;;;4.50;;
69954;SDS011;57279;55.912;37.490;2023-03-04T02:40:28;11.82;;;4.63;;
69954;SDS011;57279;55.912;37.490;2023-03-04T02:42:58;11.93;;;4.65;;
69954;SDS011;57279;55.912;37.490;2023-03-04T02:47:59;12.80;;;5.28;;
69954;SDS011;57279;55.912;37.490;2023-03-04T02:50:25;15.15;;;5.68;;
69954;SDS011;57279;55.912;37.490;2023-03-04T02:52:54;21.02;;;5.75;;
69954;SDS011;57279;55.912;37.490;2023-03-04T02:55:19;14.88;;;5.38;;
69954;SDS011;57279;55.912;37.490;2023-03-04T02:57:45;14.07;;;5.95;;
69954;SDS011;57279;55.912;37.490;2023-03-04T03:00:11;15.63;;;5.50;;
69954;SDS011;57279;55.912;37.490;2023-03-04T03:02:39;16.65;;;5.63;;
69954;SDS011;57279;55.912;37.490;2023-03-04T03:05:05;13.65;;;5.82;;
69954;SDS011;57279;55.912;37.490;2023-03-04T03:07:31;14.25;;;5.10;;
69954;SDS011;57279;55.912;37.490;2023-03-04T03:09:59;16.80;;;6.53;;
69954;SDS011;57279;55.912;37.490;2023-03-04T03:12:26;19.10;;;7.30;;
69954;SDS011;57279;55.912;37.490;2023-03-04T03:14:51;20.95;;;6.78;;
69954;SDS011;57279;55.912;37.490;2023-03-04T03:17:19;14.77;;;6.35;;
69954;SDS011;57279;55.912;37.490;2023-03-04T03:19:45;13.05;;;5.50;;
69954;SDS011;57279;55.912;37.490;2023-03-04T03:22:12;15.95;;;6.05;;
69954;SDS011;57279;55.912;37.490;2023-03-04T03:24:38;17.05;;;6.60;;
69954;SDS011;57279;55.912;37.490;2023-03-04T03:27:04;15.75;;;6.57;;
69954;SDS011;57279;55.912;37.490;2023-03-04T03:29:29;16.40;;;6.43;;
69954;SDS011;57279;55.912;37.490;2023-03-04T03:31:55;18.67;;;4.97;;
69954;SDS011;57279;55.912;37.490;2023-03-04T03:34:21;15.98;;;5.93;;
69954;SDS011;57279;55.912;37.490;2023-03-04T03:36:47;17.50;;;6.05;;
69954;SDS011;57279;55.912;37.490;2023-03-04T03:39:13;17.55;;;6.05;;
69954;SDS011;57279;55.912;37.490;2023-03-04T03:41:40;16.98;;;5.97;;
69954;SDS011;57279;55.912;37.490;2023-03-04T03:44:06;17.10;;;5.43;;
69954;SDS011;57279;55.912;37.490;2023-03-04T03:46:32;14.60;;;5.63;;
69954;SDS011;57279;55.912;37.490;2023-03-04T03:48:57;15.75;;;5.63;;
69954;SDS011;57279;55.912;37.490;2023-03-04T03:51:23;13.38;;;5.43;;
69954;SDS011;57279;55.912;37.490;2023-03-04T03:53:48;16.05;;;5.95;;
69954;SDS011;57279;55.912;37.490;2023-03-04T03:56:14;18.83;;;5.68;;
69954;SDS011;57279;55.912;37.490;2023-03-04T03:58:40;15.98;;;5.25;;
69954;SDS011;57279;55.912;37.490;2023-03-04T04:01:05;15.52;;;6.68;;
69954;SDS011;57279;55.912;37.490;2023-03-04T04:03:31;16.77;;;5.82;;
69954;SDS011;57279;55.912;37.490;2023-03-04T04:05:56;15.25;;;5.68;;
69954;SDS011;57279;55.912;37.490;2023-03-04T04:08:22;12.85;;;4.80;;
69954;SDS011;57279;55.912;37.490;2023-03-04T04:10:48;14.63;;;7.15;;
69954;SDS011;57279;55.912;37.490;2023-03-04T04:13:14;18.42;;;5.68;;
69954;SDS011;57279;55.912;37.490;2023-03-04T04:15:40;17.30;;;5.00;;
69954;SDS011;57279;55.912;37.490;2023-03-04T04:18:06;15.43;;;5.65;;
69954;SDS011;57279;55.912;37.490;2023-03-04T04:20:32;14.15;;;5.70;;
69954;SDS011;57279;55.912;37.490;2023-03-04T04:22:58;15.15;;;5.45;;
69954;SDS011;57279;55.912;37.490;2023-03-04T04:25:23;13.18;;;5.05;;
69954;SDS011;57279;55.912;37.490;2023-03-04T04:27:49;14.82;;;5.13;;
69954;SDS011;57279;55.912;37.490;2023-03-04T04:30:15;12.63;;;5.18;;
69954;SDS011;57279;55.912;37.490;2023-03-04T04:32:41;12.20;;;4.90;;
69954;SDS011;57279;55.912;37.490;2023-03-04T04:35:06;10.07;;;3.78;;
69954;SDS011;57279;55.912;37.490;2023-03-04T04:37:33;10.55;;;4.03;;
69954;SDS011;57279;55.912;37.490;2023-03-04T04:39:59;13.18;;;4.43;;
69954;SDS011;57279;55.912;37.490;2023-03-04T04:42:24;10.10;;;3.97;;
69954;SDS011;57279;55.912;37.490;2023-03-04T04:44:50;12.80;;;4.45;;
69954;SDS011;57279;55.912;37.490;2023-03-04T04:47:16;13.20;;;4.30;;
69954;SDS011;57279;55.912;37.490;2023-03-04T04:49:42;10.55;;;4.10;;
69954;SDS011;57279;55.912;37.490;2023-03-04T04:52:09;11.35;;;4.90;;
69954;SDS011;57279;55.912;37.490;2023-03-04T04:54:35;11.98;;;4.03;;
69954;SDS011;57279;55.912;37.490;2023-03-04T04:57:00;12.10;;;4.30;;
69954;SDS011;57279;55.912;37.490;2023-03-04T04:59:26;11.93;;;5.10;;
69954;SDS011;57279;55.912;37.490;2023-03-04T05:01:51;15.27;;;4.75;;
69954;SDS011;57279;55.912;37.490;2023-03-04T05:04:17;12.07;;;4.30;;
69954;SDS011;57279;55.912;37.490;2023-03-04T05:06:43;11.55;;;4.60;;
69954;SDS011;57279;55.912;37.490;2023-03-04T05:09:09;11.05;;;3.60;;
69954;SDS011;57279;55.912;37.490;2023-03-04T05:11:35;11.90;;;4.28;;
69954;SDS011;57279;55.912;37.490;2023-03-04T05:14:00;9.88;;;3.38;;
69954;SDS011;57279;55.912;37.490;2023-03-04T05:16:26;10.40;;;4.00;;
69954;SDS011;57279;55.912;37.490;2023-03-04T05:18:52;12.23;;;4.03;;
69954;SDS011;57279;55.912;37.490;2023-03-04T05:21:17;10.27;;;4.03;;
69954;SDS011;57279;55.912;37.490;2023-03-04T05:23:43;10.93;;;4.13;;
69954;SDS011;57279;55.912;37.490;2023-03-04T05:26:10;10.55;;;3.30;;
69954;SDS011;57279;55.912;37.490;2023-03-04T05:28:39;11.90;;;4.15;;
69954;SDS011;57279;55.912;37.490;2023-03-04T05:31:05;11.05;;;3.50;;
69954;SDS011;57279;55.912;37.490;2023-03-04T05:33:31;10.90;;;3.85;;
69954;SDS011;57279;55.912;37.490;2023-03-04T05:35:56;8.75;;;3.10;;
69954;SDS011;57279;55.912;37.490;2023-03-04T05:38:22;12.10;;;3.88;;
69954;SDS011;57279;55.912;37.490;2023-03-04T05:40:48;11.15;;;3.78;;
69954;SDS011;57279;55.912;37.490;2023-03-04T05:43:14;11.15;;;4.22;;
69954;SDS011;57279;55.912;37.490;2023-03-04T05:45:40;11.52;;;3.83;;
69954;SDS011;57279;55.912;37.490;2023-03-04T05:48:07;12.93;;;4.55;;
69954;SDS011;57279;55.912;37.490;2023-03-04T05:52:59;12.57;;;4.00;;
69954;SDS011;57279;55.912;37.490;2023-03-04T05:55:25;11.55;;;4.22;;
69954;SDS011;57279;55.912;37.490;2023-03-04T05:57:53;15.10;;;4.32;;
69954;SDS011;57279;55.912;37.490;2023-03-04T06:00:18;12.27;;;4.90;;
69954;SDS011;57279;55.912;37.490;2023-03-04T06:02:44;12.30;;;4.28;;
69954;SDS011;57279;55.912;37.490;2023-03-04T06:05:11;11.50;;;5.07;;
69954;SDS011;57279;55.912;37.490;2023-03-04T06:07:38;11.63;;;3.97;;
69954;SDS011;57279;55.912;37.490;2023-03-04T06:10:04;12.23;;;4.10;;
69954;SDS011;57279;55.912;37.490;2023-03-04T06:12:30;13.18;;;3.70;;
69954;SDS011;57279;55.912;37.490;2023-03-04T06:14:56;10.63;;;4.55;;
69954;SDS011;57279;55.912;37.490;2023-03-04T06:17:22;10.00;;;3.83;;
69954;SDS011;57279;55.912;37.490;2023-03-04T06:19:47;10.30;;;4.50;;
69954;SDS011;57279;55.912;37.490;2023-03-04T06:22:13;10.57;;;4.30;;
69954;SDS011;57279;55.912;37.490;2023-03-04T06:24:39;10.13;;;4.20;;
69954;SDS011;57279;55.912;37.490;2023-03-04T06:27:04;16.88;;;3.80;;
69954;SDS011;57279;55.912;37.490;2023-03-04T06:29:30;9.73;;;3.53;;
69954;SDS011;57279;55.912;37.490;2023-03-04T06:31:56;11.32;;;4.85;;
69954;SDS011;57279;55.912;37.490;2023-03-04T06:34:22;14.13;;;5.60;;
69954;SDS011;57279;55.912;37.490;2023-03-04T06:36:48;11.07;;;4.60;;
69954;SDS011;57279;55.912;37.490;2023-03-04T06:39:13;11.07;;;3.95;;
69954;SDS011;57279;55.912;37.490;2023-03-04T06:41:39;11.02;;;4.30;;
69954;SDS011;57279;55.912;37.490;2023-03-04T06:44:05;12.90;;;4.95;;
69954;SDS011;57279;55.912;37.490;2023-03-04T06:46:34;10.60;;;4.88;;
69954;SDS011;57279;55.912;37.490;2023-03-04T06:49:00;10.63;;;4.30;;
69954;SDS011;57279;55.912;37.490;2023-03-04T06:51:26;11.32;;;5.00;;
69954;SDS011;57279;55.912;37.490;2023-03-04T06:53:52;11.23;;;4.28;;
69954;SDS011;57279;55.912;37.490;2023-03-04T06:56:18;12.68;;;5.07;;
69954;SDS011;57279;55.912;37.490;2023-03-04T06:58:44;12.85;;;5.25;;
69954;SDS011;57279;55.912;37.490;2023-03-04T07:01:15;11.00;;;4.80;;
69954;SDS011;57279;55.912;37.490;2023-03-04T07:03:43;11.07;;;4.47;;
69954;SDS011;57279;55.912;37.490;2023-03-04T07:06:10;10.15;;;4.15;;
69954;SDS011;57279;55.912;37.490;2023-03-04T07:08:37;12.27;;;4.88;;
69954;SDS011;57279;55.912;37.490;2023-03-04T07:11:03;12.68;;;5.15;;
69954;SDS011;57279;55.912;37.490;2023-03-04T07:13:29;11.40;;;4.70;;
69954;SDS011;57279;55.912;37.490;2023-03-04T07:15:54;12.95;;;5.05;;
69954;SDS011;57279;55.912;37.490;2023-03-04T07:18:20;13.55;;;5.03;;
69954;SDS011;57279;55.912;37.490;2023-03-04T07:20:46;11.30;;;4.72;;
69954;SDS011;57279;55.912;37.490;2023-03-04T07:23:11;14.50;;;4.78;;
69954;SDS011;57279;55.912;37.490;2023-03-04T07:25:37;13.27;;;4.68;;
69954;SDS011;57279;55.912;37.490;2023-03-04T07:28:03;11.45;;;4.85;;
69954;SDS011;57279;55.912;37.490;2023-03-04T07:30:28;10.60;;;4.25;;
69954;SDS011;57279;55.912;37.490;2023-03-04T07:32:56;11.82;;;4.35;;
69954;SDS011;57279;55.912;37.490;2023-03-04T07:35:22;10.43;;;4.20;;
69954;SDS011;57279;55.912;37.490;2023-03-04T07:37:47;10.65;;;4.32;;
69954;SDS011;57279;55.912;37.490;2023-03-04T07:40:13;12.15;;;4.75;;
69954;SDS011;57279;55.912;37.490;2023-03-04T07:42:39;11.45;;;5.43;;
69954;SDS011;57279;55.912;37.490;2023-03-04T07:45:09;11.07;;;4.45;;
69954;SDS011;57279;55.912;37.490;2023-03-04T07:47:35;13.10;;;4.90;;
69954;SDS011;57279;55.912;37.490;2023-03-04T07:50:00;9.65;;;4.20;;
69954;SDS011;57279;55.912;37.490;2023-03-04T07:52:26;11.25;;;4.88;;
69954;SDS011;57279;55.912;37.490;2023-03-04T07:54:52;13.70;;;5.22;;
69954;SDS011;57279;55.912;37.490;2023-03-04T07:57:17;11.75;;;4.93;;
69954;SDS011;57279;55.912;37.490;2023-03-04T07:59:43;11.15;;;5.47;;
69954;SDS011;57279;55.912;37.490;2023-03-04T08:02:09;10.73;;;4.45;;
69954;SDS011;57279;55.912;37.490;2023-03-04T08:04:35;12.50;;;4.82;;
69954;SDS011;57279;55.912;37.490;2023-03-04T08:07:00;11.77;;;4.70;;
69954;SDS011;57279;55.912;37.490;2023-03-04T08:09:26;11.85;;;5.10;;
69954;SDS011;57279;55.912;37.490;2023-03-04T08:11:52;13.77;;;4.90;;
69954;SDS011;57279;55.912;37.490;2023-03-04T08:14:17;11.65;;;4.38;;
69954;SDS011;57279;55.912;37.490;2023-03-04T08:16:43;11.63;;;4.20;;
69954;SDS011;57279;55.912;37.490;2023-03-04T08:19:09;11.20;;;3.38;;
69954;SDS011;57279;55.912;37.490;2023-03-04T08:21:35;13.50;;;4.65;;
69954;SDS011;57279;55.912;37.490;2023-03-04T08:24:01;12.50;;;4.97;;
69954;SDS011;57279;55.912;37.490;2023-03-04T08:26:39;13.43;;;4.40;;
69954;SDS011;57279;55.912;37.490;2023-03-04T08:29:09;11.07;;;4.20;;
69954;SDS011;57279;55.912;37.490;2023-03-04T08:31:37;10.07;;;4.22;;
69954;SDS011;57279;55.912;37.490;2023-03-04T08:36:30;9.25;;;3.85;;
69954;SDS011;57279;55.912;37.490;2023-03-04T08:38:56;10.38;;;4.22;;
69954;SDS011;57279;55.912;37.490;2023-03-04T08:41:22;12.75;;;4.13;;
69954;SDS011;57279;55.912;37.490;2023-03-04T08:43:49;9.13;;;3.70;;
69954;SDS011;57279;55.912;37.490;2023-03-04T08:46:15;11.20;;;4.50;;
69954;SDS011;57279;55.912;37.490;2023-03-04T08:48:40;10.02;;;4.63;;
69954;SDS011;57279;55.912;37.490;2023-03-04T08:51:10;10.23;;;4.25;;
69954;SDS011;57279;55.912;37.490;2023-03-04T08:53:38;10.05;;;4.10;;
69954;SDS011;57279;55.912;37.490;2023-03-04T08:56:05;10.18;;;3.85;;
69954;SDS011;57279;55.912;37.490;2023-03-04T08:58:31;11.50;;;4.68;;
69954;SDS011;57279;55.912;37.490;2023-03-04T09:00:58;11.07;;;4.55;;
69954;SDS011;57279;55.912;37.490;2023-03-04T09:03:25;9.27;;;4.05;;
69954;SDS011;57279;55.912;37.490;2023-03-04T09:05:50;10.38;;;3.90;;
69954;SDS011;57279;55.912;37.490;2023-03-04T09:08:16;11.93;;;4.53;;
69954;SDS011;57279;55.912;37.490;2023-03-04T09:10:43;9.38;;;3.65;;
69954;SDS011;57279;55.912;37.490;2023-03-04T09:13:10;10.27;;;3.80;;
69954;SDS011;57279;55.912;37.490;2023-03-04T09:15:36;9.60;;;3.13;;
69954;SDS011;57279;55.912;37.490;2023-03-04T09:18:03;9.88;;;4.20;;
69954;SDS011;57279;55.912;37.490;2023-03-04T09:20:29;11.65;;;4.50;;
69954;SDS011;57279;55.912;37.490;2023-03-04T09:22:56;10.80;;;4.68;;
69954;SDS011;57279;55.912;37.490;2023-03-04T09:25:22;12.90;;;4.63;;
69954;SDS011;57279;55.912;37.490;2023-03-04T09:27:48;10.27;;;4.18;;
69954;SDS011;57279;55.912;37.490;2023-03-04T09:30:13;12.02;;;4.22;;
69954;SDS011;57279;55.912;37.490;2023-03-04T09:32:39;11.38;;;3.38;;
69954;SDS011;57279;55.912;37.490;2023-03-04T09:35:06;11.02;;;3.88;;
69954;SDS011;57279;55.912;37.490;2023-03-04T09:37:32;12.55;;;3.85;;
69954;SDS011;57279;55.912;37.490;2023-03-04T09:39:58;8.70;;;3.60;;
69954;SDS011;57279;55.912;37.490;2023-03-04T09:42:24;10.82;;;3.95;;
69954;SDS011;57279;55.912;37.490;2023-03-04T09:47:22;12.00;;;4.35;;
69954;SDS011;57279;55.912;37.490;2023-03-04T09:49:57;10.20;;;4.07;;
69954;SDS011;57279;55.912;37.490;2023-03-04T09:57:59;13.60;;;4.30;;
69954;SDS011;57279;55.912;37.490;2023-03-04T10:00:41;11.93;;;3.58;;
69954;SDS011;57279;55.912;37.490;2023-03-04T10:05:38;9.60;;;3.35;;
69954;SDS011;57279;55.912;37.490;2023-03-04T10:11:30;9.10;;;3.58;;
69954;SDS011;57279;55.912;37.490;2023-03-04T10:16:58;10.98;;;3.92;;
69954;SDS011;57279;55.912;37.490;2023-03-04T10:22:20;8.50;;;3.10;;
69954;SDS011;57279;55.912;37.490;2023-03-04T10:33:17;11.23;;;3.20;;
69954;SDS011;57279;55.912;37.490;2023-03-04T10:39:34;8.73;;;3.30;;
69954;SDS011;57279;55.912;37.490;2023-03-04T10:41:52;7.30;;;3.13;;
69954;SDS011;57279;55.912;37.490;2023-03-04T10:44:29;7.30;;;2.45;;
69954;SDS011;57279;55.912;37.490;2023-03-04T10:46:57;8.20;;;2.70;;
69954;SDS011;57279;55.912;37.490;2023-03-04T10:49:23;9.52;;;2.78;;
69954;SDS011;57279;55.912;37.490;2023-03-04T10:51:52;7.32;;;2.33;;
69954;SDS011;57279;55.912;37.490;2023-03-04T10:54:40;9.65;;;2.58;;
69954;SDS011;57279;55.912;37.490;2023-03-04T10:57:22;8.57;;;2.90;;
69954;SDS011;57279;55.912;37.490;2023-03-04T10:59:57;10.85;;;2.70;;
69954;SDS011;57279;55.912;37.490;2023-03-04T11:07:29;9.57;;;3.08;;
69954;SDS011;57279;55.912;37.490;2023-03-04T11:09:55;13.80;;;4.00;;
69954;SDS011;57279;55.912;37.490;2023-03-04T11:12:33;10.18;;;3.83;;
69954;SDS011;57279;55.912;37.490;2023-03-04T11:14:59;9.98;;;3.00;;
69954;SDS011;57279;55.912;37.490;2023-03-04T11:17:36;9.23;;;2.70;;
69954;SDS011;57279;55.912;37.490;2023-03-04T11:26:05;16.48;;;3.78;;
69954;SDS011;57279;55.912;37.490;2023-03-04T11:28:41;12.45;;;3.75;;
69954;SDS011;57279;55.912;37.490;2023-03-04T11:31:17;8.07;;;3.15;;
69954;SDS011;57279;55.912;37.490;2023-03-04T11:33:52;10.13;;;3.30;;
69954;SDS011;57279;55.912;37.490;2023-03-04T11:39:23;8.20;;;3.10;;
69954;SDS011;57279;55.912;37.490;2023-03-04T11:42:09;8.13;;;3.00;;
69954;SDS011;57279;55.912;37.490;2023-03-04T11:44:37;18.17;;;2.53;;
69954;SDS011;57279;55.912;37.490;2023-03-04T11:49:59;8.60;;;2.78;;
69954;SDS011;57279;55.912;37.490;2023-03-04T12:03:46;12.70;;;4.45;;
69954;SDS011;57279;55.912;37.490;2023-03-04T12:32:33;14.90;;;5.03;;
69954;SDS011;57279;55.912;37.490;2023-03-04T12:40:54;11.68;;;4.75;;
69954;SDS011;57279;55.912;37.490;2023-03-04T12:43:35;13.27;;;5.05;;
69954;SDS011;57279;55.912;37.490;2023-03-04T12:46:09;11.05;;;5.05;;
69954;SDS011;57279;55.912;37.490;2023-03-04T12:48:45;11.38;;;4.32;;
69954;SDS011;57279;55.912;37.490;2023-03-04T12:54:24;11.93;;;3.75;;
69954;SDS011;57279;55.912;37.490;2023-03-04T12:56:55;12.45;;;4.65;;
69954;SDS011;57279;55.912;37.490;2023-03-04T12:59:25;14.82;;;5.15;;
69954;SDS011;57279;55.912;37.490;2023-03-04T13:10:40;16.80;;;5.38;;
69954;SDS011;57279;55.912;37.490;2023-03-04T13:13:31;14.13;;;4.40;;
69954;SDS011;57279;55.912;37.490;2023-03-04T13:16:02;11.93;;;4.18;;
69954;SDS011;57279;55.912;37.490;2023-03-04T13:18:43;14.65;;;4.55;;
69954;SDS011;57279;55.912;37.490;2023-03-04T13:23:38;16.80;;;5.20;;
69954;SDS011;57279;55.912;37.490;2023-03-04T13:26:15;14.23;;;5.07;;
69954;SDS011;57279;55.912;37.490;2023-03-04T13:28:44;14.15;;;4.38;;
69954;SDS011;57279;55.912;37.490;2023-03-04T13:31:12;13.40;;;5.78;;
69954;SDS011;57279;55.912;37.490;2023-03-04T13:36:29;14.63;;;5.88;;
69954;SDS011;57279;55.912;37.490;2023-03-04T13:41:48;16.75;;;6.53;;
69954;SDS011;57279;55.912;37.490;2023-03-04T13:47:09;21.25;;;6.78;;
69954;SDS011;57279;55.912;37.490;2023-03-04T13:49:41;15.75;;;7.43;;
69954;SDS011;57279;55.912;37.490;2023-03-04T13:57:58;16.17;;;6.78;;
69954;SDS011;57279;55.912;37.490;2023-03-04T14:00:24;17.05;;;6.53;;
69954;SDS011;57279;55.912;37.490;2023-03-04T14:02:52;16.58;;;6.78;;
69954;SDS011;57279;55.912;37.490;2023-03-04T14:05:17;15.07;;;6.55;;
69954;SDS011;57279;55.912;37.490;2023-03-04T14:07:43;15.68;;;6.22;;
69954;SDS011;57279;55.912;37.490;2023-03-04T14:12:52;15.60;;;6.57;;
69954;SDS011;57279;55.912;37.490;2023-03-04T14:15:27;14.95;;;6.78;;
69954;SDS011;57279;55.912;37.490;2023-03-04T14:17:55;17.15;;;6.55;;
69954;SDS011;57279;55.912;37.490;2023-03-04T14:20:30;14.93;;;6.35;;
69954;SDS011;57279;55.912;37.490;2023-03-04T14:22:58;16.75;;;6.97;;
69954;SDS011;57279;55.912;37.490;2023-03-04T14:25:31;16.30;;;7.00;;
69954;SDS011;57279;55.912;37.490;2023-03-04T14:28:53;14.07;;;6.00;;
69954;SDS011;57279;55.912;37.490;2023-03-04T14:31:23;12.43;;;5.95;;
69954;SDS011;57279;55.912;37.490;2023-03-04T14:33:55;13.00;;;6.22;;
69954;SDS011;57279;55.912;37.490;2023-03-04T14:36:30;16.10;;;6.80;;
69954;SDS011;57279;55.912;37.490;2023-03-04T14:38:59;15.65;;;6.85;;
69954;SDS011;57279;55.912;37.490;2023-03-04T14:41:38;13.18;;;6.70;;
69954;SDS011;57279;55.912;37.490;2023-03-04T14:46:54;16.67;;;6.40;;
69954;SDS011;57279;55.912;37.490;2023-03-04T14:49:24;14.90;;;6.53;;
69954;SDS011;57279;55.912;37.490;2023-03-04T14:51:52;13.20;;;6.30;;
69954;SDS011;57279;55.912;37.490;2023-03-04T14:56:56;16.08;;;6.63;;
69954;SDS011;57279;55.912;37.490;2023-03-04T14:59:29;14.85;;;6.22;;
69954;SDS011;57279;55.912;37.490;2023-03-04T15:04:46;17.65;;;5.90;;
69954;SDS011;57279;55.912;37.490;2023-03-04T15:07:17;15.00;;;7.07;;
69954;SDS011;57279;55.912;37.490;2023-03-04T15:09:53;16.67;;;6.53;;
69954;SDS011;57279;55.912;37.490;2023-03-04T15:12:29;17.05;;;7.00;;
69954;SDS011;57279;55.912;37.490;2023-03-04T15:14:59;20.52;;;6.85;;
69954;SDS011;57279;55.912;37.490;2023-03-04T15:22:31;19.75;;;7.15;;
69954;SDS011;57279;55.912;37.490;2023-03-04T15:25:20;17.13;;;7.40;;
69954;SDS011;57279;55.912;37.490;2023-03-04T15:27:46;13.75;;;6.90;;
69954;SDS011;57279;55.912;37.490;2023-03-04T15:32:41;14.35;;;6.40;;
69954;SDS011;57279;55.912;37.490;2023-03-04T15:35:13;13.32;;;6.22;;
69954;SDS011;57279;55.912;37.490;2023-03-04T15:37:41;15.30;;;6.13;;
69954;SDS011;57279;55.912;37.490;2023-03-04T15:42:57;15.40;;;6.93;;
69954;SDS011;57279;55.912;37.490;2023-03-04T15:45:29;17.15;;;7.10;;
69954;SDS011;57279;55.912;37.490;2023-03-04T15:47:57;15.07;;;7.18;;
69954;SDS011;57279;55.912;37.490;2023-03-04T15:50:26;13.95;;;7.82;;
69954;SDS011;57279;55.912;37.490;2023-03-04T15:52:57;16.40;;;7.50;;
69954;SDS011;57279;55.912;37.490;2023-03-04T15:55:26;14.20;;;7.13;;
69954;SDS011;57279;55.912;37.490;2023-03-04T15:57:54;16.25;;;8.13;;
69954;SDS011;57279;55.912;37.490;2023-03-04T16:00:21;16.75;;;7.55;;
69954;SDS011;57279;55.912;37.490;2023-03-04T16:02:47;17.55;;;8.32;;
69954;SDS011;57279;55.912;37.490;2023-03-04T16:05:13;18.58;;;8.10;;
69954;SDS011;57279;55.912;37.490;2023-03-04T16:07:40;15.15;;;7.97;;
69954;SDS011;57279;55.912;37.490;2023-03-04T16:10:23;14.88;;;7.47;;
69954;SDS011;57279;55.912;37.490;2023-03-04T16:12:51;16.40;;;6.40;;
69954;SDS011;57279;55.912;37.490;2023-03-04T16:15:19;18.48;;;8.77;;
69954;SDS011;57279;55.912;37.490;2023-03-04T16:17:46;16.45;;;7.82;;
69954;SDS011;57279;55.912;37.490;2023-03-04T16:20:14;16.75;;;7.65;;
69954;SDS011;57279;55.912;37.490;2023-03-04T16:22:42;14.00;;;6.75;;
69954;SDS011;57279;55.912;37.490;2023-03-04T16:25:10;15.70;;;8.27;;
69954;SDS011;57279;55.912;37.490;2023-03-04T16:27:38;14.60;;;7.72;;
69954;SDS011;57279;55.912;37.490;2023-03-04T16:30:05;15.88;;;7.53;;
69954;SDS011;57279;55.912;37.490;2023-03-04T16:32:32;20.65;;;8.13;;
69954;SDS011;57279;55.912;37.490;2023-03-04T16:34:58;18.08;;;9.45;;
69954;SDS011;57279;55.912;37.490;2023-03-04T16:37:24;20.67;;;6.97;;
69954;SDS011;57279;55.912;37.490;2023-03-04T16:39:54;21.65;;;7.47;;
69954;SDS011;57279;55.912;37.490;2023-03-04T16:42:20;18.83;;;8.02;;
69954;SDS011;57279;55.912;37.490;2023-03-04T16:47:13;15.52;;;6.72;;
69954;SDS011;57279;55.912;37.490;2023-03-04T16:49:38;14.77;;;6.30;;
69954;SDS011;57279;55.912;37.490;2023-03-04T16:52:04;13.80;;;6.50;;
69954;SDS011;57279;55.912;37.490;2023-03-04T16:54:32;17.10;;;6.95;;
69954;SDS011;57279;55.912;37.490;2023-03-04T16:57:00;17.83;;;6.68;;
69954;SDS011;57279;55.912;37.490;2023-03-04T16:59:26;16.02;;;6.60;;
69954;SDS011;57279;55.912;37.490;2023-03-04T17:01:53;13.23;;;5.72;;
69954;SDS011;57279;55.912;37.490;2023-03-04T17:04:19;13.45;;;5.07;;
69954;SDS011;57279;55.912;37.490;2023-03-04T17:09:10;16.83;;;5.75;;